• Join FlightAware (Why Join?)
  • Login
  • US Flag 
03:19AM EDT


 

Airport Tracker/Info


-or-


 

Live Flight TrackerFlight Track Log ✈ KFA277 ✈ 29-Jan-2014 ✈ CYWG - CYVR

Flight Track Log - Related Links

Times and Time Zones

All times are in EST time to prevent confusion due to time zone crossing. See the KFA277 flight status page for this flight to view local times or setup timezone preferences in your user account.

Time Position Orientation Groundspeed Altitude Reporting Facility
EST Latitude Longitude Course Direction KTS MPH feet Rate Location/Type
04:55AM 49.8833 -97.2333 360° North 90 104 800  Level Winnipeg Center
04:56AM 49.9000 -97.2333 360° North 120 138 800 660 Level Winnipeg Center
04:57AM 49.9167 -97.2833 297° West 160 184 2,200 1,500 Climbing Winnipeg Center
04:58AM 49.9167 -97.3500 270° West 210 242 3,800 2,340 Climbing Winnipeg Center
04:59AM 49.9333 -97.4833 281° West 250 288 6,900 2,940 Climbing Winnipeg Center
05:00AM 49.9500 -97.5833 285° West 250 288 9,700 1,980 Climbing Winnipeg Center
05:01AM 49.9667 -97.7000 283° West 290 334 10,900 1,380 Climbing Winnipeg Center
05:02AM 49.9833 -97.8500 280° West 340 391 12,500 1,980 Climbing Winnipeg Center
05:03AM 50.0000 -98.0000 280° West 340 391 14,900 1,860 Climbing Winnipeg Center
05:04AM 50.0000 -98.1333 270° West 340 391 16,300 1,260 Climbing Winnipeg Center
05:05AM 50.0000 -98.3000 270° West 350 403 17,500 1,500 Climbing Winnipeg Center
05:06AM 50.0333 -98.4500 289° West 360 414 19,300 1,440 Climbing Winnipeg Center
05:07AM 50.0333 -98.6000 270° West 370 426 20,400 1,260 Climbing Winnipeg Center
05:08AM 50.0667 -98.7667 287° West 380 437 21,900 1,440 Climbing Winnipeg Center
05:09AM 50.0833 -98.9500 278° West 390 449 23,300 1,200 Climbing Winnipeg Center
05:10AM 50.1000 -99.1000 280° West 390 449 24,400 1,140 Climbing Winnipeg Center
05:11AM 50.1000 -99.2833 270° West 390 449 25,600 1,440 Climbing Winnipeg Center
05:12AM 50.1167 -99.4500 279° West 390 449 27,300 1,500 Climbing Winnipeg Center
05:13AM 50.1333 -99.6000 280° West 390 449 28,700 1,440 Climbing Winnipeg Center
05:14AM 50.1500 -99.7833 278° West 380 437 30,200 1,200 Climbing Winnipeg Center
05:15AM 50.1667 -99.9500 279° West 380 437 31,200 840 Climbing Winnipeg Center
05:16AM 50.1667 -100.1000 270° West 380 437 31,900 780 Climbing Winnipeg Center
05:17AM 50.1833 -100.2667 279° West 380 437 32,800 780 Climbing Winnipeg Center
05:18AM 50.2000 -100.4167 280° West 370 426 33,500 540 Climbing Winnipeg Center
05:19AM 50.2000 -100.6000 270° West 370 426 33,900 240 Climbing Winnipeg Center
05:20AM 50.2167 -100.7667 279° West 380 437 34,000  Climbing Winnipeg Center
05:21AM 50.2333 -100.9167 280° West 390 449 34,000  Level Winnipeg Center
05:22AM 50.2333 -101.1000 270° West 380 437 34,000  Level Winnipeg Center
05:23AM 50.2500 -101.2667 279° West 380 437 34,000  Level Winnipeg Center
05:24AM 50.2833 -101.4167 289° West 380 437 34,000  Level Winnipeg Center
05:25AM 50.2833 -101.6000 270° West 380 437 34,000  Level Winnipeg Center
05:26AM 50.3000 -101.7667 279° West 380 437 34,000  Level Winnipeg Center
05:27AM 50.3000 -101.9167 270° West 380 437 34,000  Level Winnipeg Center
05:28AM 50.3167 -102.0833 279° West 380 437 34,000  Level Winnipeg Center
05:29AM 50.3333 -102.2333 280° West 380 437 34,000  Level Winnipeg Center
05:30AM 50.3333 -102.4167 270° West 380 437 34,000  Level Winnipeg Center
05:31AM 50.3500 -102.5833 279° West 390 449 34,000  Level Winnipeg Center
05:32AM 50.3500 -102.7667 270° West 390 449 34,000  Level Winnipeg Center
05:33AM 50.3500 -102.9167 270° West 390 449 34,000  Level Winnipeg Center
05:34AM 50.3333 -103.0833 261° West 400 460 34,000  Level Winnipeg Center
05:35AM 50.3500 -103.2667 278° West 400 460 34,000  Level Winnipeg Center
05:36AM 50.3333 -103.4500 262° West 400 460 34,000  Level Winnipeg Center
05:37AM 50.3167 -103.6333 262° West 400 460 34,000  Level Winnipeg Center
05:38AM 50.3333 -103.7833 280° West 400 460 34,000  Level Winnipeg Center
05:39AM 50.3167 -103.9667 262° West 400 460 34,000  Level Winnipeg Center
05:40AM 50.3167 -104.1500 270° West 400 460 34,000  Level Winnipeg Center
05:41AM 50.3167 -104.3167 270° West 400 460 34,000  Level Winnipeg Center
05:42AM 50.3000 -104.5000 262° West 400 460 34,000  Level Winnipeg Center
05:43AM 50.3000 -104.6833 270° West 400 460 34,000  Level Winnipeg Center
05:44AM 50.3000 -104.8333 270° West 400 460 34,000  Level Winnipeg Center
05:45AM 50.2833 -105.0167 262° West 400 460 34,000  Level Winnipeg Center
05:46AM 50.2833 -105.2000 270° West 410 472 34,000  Level Winnipeg Center
05:47AM 50.2833 -105.3500 270° West 410 472 34,000  Level Winnipeg Center
05:48AM 50.2833 -105.5333 270° West 400 460 34,000  Level Winnipeg Center
05:49AM 50.2667 -105.7167 262° West 410 472 34,000  Level Winnipeg Center
05:50AM 50.2500 -105.9000 262° West 410 472 34,000  Level Winnipeg Center
05:51AM 50.2500 -106.0667 270° West 410 472 34,000  Level Winnipeg Center
05:52AM 50.2333 -106.2667 263° West 410 472 34,000  Level Winnipeg Center
05:53AM 50.2333 -106.4167 270° West 410 472 34,000  Level Winnipeg Center
05:54AM 50.2333 -106.6167 270° West 410 472 34,000  Level Winnipeg Center
05:55AM 50.2167 -106.7833 261° West 410 472 34,000  Level Winnipeg Center
05:56AM 50.2167 -106.9667 270° West 410 472 34,000  Level Winnipeg Center
05:57AM 50.2000 -107.1500 262° West 410 472 34,000  Level Winnipeg Center
05:58AM 50.2000 -107.3167 270° West 410 472 34,000  Level Winnipeg Center
05:59AM 50.1833 -107.5000 262° West 410 472 34,000  Level Winnipeg Center
06:00AM 50.1667 -107.6667 261° West 410 472 34,000  Level Winnipeg Center
06:01AM 50.1667 -107.8667 270° West 410 472 34,000  Level Winnipeg Center
06:02AM 50.1500 -108.0167 260° West 400 460 34,000  Level Winnipeg Center
06:03AM 50.1333 -108.2000 262° West 410 472 34,000  Level Winnipeg Center
06:04AM 50.1333 -108.3833 270° West 400 460 34,000  Level Winnipeg Center
06:05AM 50.1167 -108.5500 261° West 410 472 34,000  Level Winnipeg Center
06:06AM 50.1000 -108.7167 261° West 410 472 34,000  Level Winnipeg Center
06:07AM 50.0833 -108.9167 263° West 410 472 34,000  Level Winnipeg Center
06:08AM 50.0667 -109.0667 260° West 410 472 34,000  Level Winnipeg Center
06:09AM 50.0667 -109.2833 270° West 420 483 34,000  Level Winnipeg Center
06:10AM 50.0500 -109.4333 260° West 420 483 34,000  Level Winnipeg Center
06:11AM 50.0500 -109.6500 270° West 420 483 34,000  Level Winnipeg Center
06:12AM 50.0333 -109.8000 260° West 420 483 34,000  Level Winnipeg Center
06:13AM 50.0000 -109.9833 254° West 420 483 34,000  Level Winnipeg Center
06:14AM 50.0000 -110.1667 270° West 420 483 34,000  Level Winnipeg Center
06:15AM 49.9833 -110.3333 261° West 410 472 34,000  Level Winnipeg Center
06:16AM 49.9833 -110.5167 270° West 420 483 34,000  Level Winnipeg Center
06:17AM 49.9500 -110.7000 254° West 420 483 34,000  Level Winnipeg Center
06:18AM 49.9333 -110.8833 262° West 420 483 34,000  Level Winnipeg Center
06:19AM 49.9333 -111.0667 270° West 420 483 34,000  Level Winnipeg Center
06:20AM 49.9167 -111.2333 261° West 420 483 34,000  Level Winnipeg Center
06:21AM 49.9167 -111.4167 270° West 410 472 34,000  Level Winnipeg Center
06:22AM 49.9000 -111.5833 261° West 410 472 34,000  Level Winnipeg Center
06:23AM 49.8833 -111.7833 263° West 410 472 34,000  Level Winnipeg Center
06:24AM 49.8833 -111.9333 270° West 410 472 34,000  Level Winnipeg Center
06:25AM 49.8667 -112.1167 262° West 410 472 34,000  Level Winnipeg Center
06:26AM 49.8500 -112.3000 262° West 410 472 34,000 -300 Level Winnipeg Center
06:27AM 49.8500 -112.4500 270° West 400 460 33,500 -1,140 Descending Winnipeg Center
06:28AM 49.8333 -112.6667 263° West 420 483 31,800 -1,440 Descending Winnipeg Center
06:29AM 49.8167 -112.8167 260° West 420 483 30,700 -900 Descending Winnipeg Center
06:30AM 49.8000 -113.0167 263° West 420 483 30,100 -420 Descending Winnipeg Center
06:30AM 49.8000 -113.0333 270° West 420 483 30,000 -60 Descending Vancouver Center
06:31AM 49.7833 -113.2000 261° West 410 472 30,000  Level Vancouver Center
06:32AM 49.7833 -113.3833 270° West 410 472 30,000  Level Vancouver Center
06:33AM 49.7667 -113.5500 261° West 400 460 30,000  Level Vancouver Center
06:34AM 49.7500 -113.7333 262° West 400 460 30,000  Level Vancouver Center
06:35AM 49.7333 -113.8833 260° West 400 460 30,000  Level Vancouver Center
06:36AM 49.7167 -114.0500 261° West 390 449 30,000  Level Vancouver Center
06:37AM 49.7000 -114.2333 262° West 390 449 30,000  Level Vancouver Center
06:38AM 49.6833 -114.3833 260° West 390 449 30,000  Level Vancouver Center
06:39AM 49.6833 -114.5500 270° West 380 437 30,000  Level Vancouver Center
06:40AM 49.6667 -114.7000 260° West 380 437 30,000  Level Vancouver Center
06:41AM 49.6500 -114.8667 261° West 380 437 30,000  Level Vancouver Center
06:42AM 49.6333 -115.0500 262° West 380 437 30,000  Level Vancouver Center
06:43AM 49.6167 -115.2000 260° West 380 437 30,000  Level Vancouver Center
06:44AM 49.6167 -115.3667 270° West 380 437 30,000  Level Vancouver Center
06:45AM 49.5833 -115.5167 251° West 380 437 30,000  Level Vancouver Center
06:46AM 49.5667 -115.6833 261° West 380 437 30,000  Level Vancouver Center
06:47AM 49.5667 -115.8333 270° West 380 437 30,000  Level Vancouver Center
06:48AM 49.5500 -116.0000 261° West 380 437 30,000  Level Vancouver Center
06:49AM 49.5333 -116.1500 260° West 380 437 30,000  Level Vancouver Center
06:50AM 49.5333 -116.3000 270° West 380 437 30,000  Level Vancouver Center
06:51AM 49.5333 -116.4667 270° West 380 437 30,000  Level Vancouver Center
06:52AM 49.5333 -116.6500 270° West 380 437 30,000  Level Vancouver Center
06:53AM 49.5167 -116.8000 260° West 380 437 30,000  Level Vancouver Center
06:54AM 49.5167 -116.9500 270° West 380 437 30,000  Level Vancouver Center
06:55AM 49.5167 -117.1333 270° West 380 437 30,000  Level Vancouver Center
06:56AM 49.5000 -117.2833 260° West 390 449 30,000  Level Vancouver Center
06:57AM 49.5000 -117.4500 270° West 380 437 30,000  Level Vancouver Center
06:58AM 49.4833 -117.6333 262° West 390 449 30,000  Level Vancouver Center
06:59AM 49.4833 -117.7833 270° West 390 449 30,000  Level Vancouver Center
07:00AM 49.4833 -117.9333 270° West 390 449 30,000  Level Vancouver Center
07:01AM 49.4833 -118.1167 270° West 390 449 30,000  Level Vancouver Center
07:02AM 49.4667 -118.3000 262° West 390 449 30,000  Level Vancouver Center
07:03AM 49.4667 -118.4500 270° West 390 449 30,000  Level Vancouver Center
07:04AM 49.4500 -118.6167 261° West 390 449 30,000  Level Vancouver Center
07:05AM 49.4500 -118.7833 270° West 390 449 30,000  Level Vancouver Center
07:06AM 49.4333 -118.9667 262° West 400 460 30,000  Level Vancouver Center
07:07AM 49.4333 -119.1333 270° West 400 460 30,000  Level Vancouver Center
07:08AM 49.4167 -119.3000 261° West 400 460 30,000  Level Vancouver Center
07:09AM 49.4000 -119.4667 261° West 400 460 30,000  Level Vancouver Center
07:10AM 49.4000 -119.6500 270° West 390 449 30,000  Level Vancouver Center
07:11AM 49.4000 -119.8167 270° West 390 449 30,000  Level Vancouver Center
07:12AM 49.4000 -120.0000 270° West 390 449 30,000  Level Vancouver Center
07:13AM 49.3833 -120.1500 260° West 390 449 30,000  Level Vancouver Center
07:14AM 49.3667 -120.3333 262° West 390 449 30,000  Level Vancouver Center
07:15AM 49.3500 -120.5000 261° West 390 449 30,000  Level Vancouver Center
07:16AM 49.3333 -120.6500 260° West 390 449 30,000  Level Vancouver Center
07:17AM 49.3167 -120.8000 260° West 390 449 30,000  Level Vancouver Center
07:18AM 49.2833 -120.9833 254° West 390 449 30,000  Level Vancouver Center
07:19AM 49.2667 -121.1333 260° West 390 449 30,000  Level Vancouver Center
07:20AM 49.2667 -121.3000 270° West 390 449 30,100 -1,200 Climbing Vancouver Center
07:21AM 49.2333 -121.4500 251° West 380 437 27,600 -3,000 Descending Vancouver Center
07:22AM 49.2167 -121.6333 262° West 380 437 24,100 -3,540 Descending Vancouver Center
07:23AM 49.2000 -121.7833 260° West 390 449 20,600 -2,880 Descending Vancouver Center
07:24AM 49.1833 -121.9333 260° West 380 437 18,400 -2,340 Descending Vancouver Center
07:25AM 49.1833 -122.1167 270° West 370 426 16,000 -2,520 Descending Vancouver Center
07:26AM 49.1833 -122.2500 270° West 360 414 13,400 -2,460 Descending Vancouver Center
07:27AM 49.1667 -122.4000 260° West 350 403 11,100 -2,400 Descending Vancouver Center
07:28AM 49.1667 -122.5167 270° West 300 345 8,700 -2,580 Descending Vancouver Center
07:29AM 49.1500 -122.6333 258° West 290 334 6,000 -2,100 Descending Vancouver Center
07:30AM 49.1500 -122.7500 270° West 280 322 4,500 -1,320 Descending Vancouver Center
07:31AM 49.1333 -122.8500 256° West 260 299 3,400 -840 Descending Vancouver Center
07:32AM 49.1500 -122.9500 284° West 240 276 2,900 -900 Descending Vancouver Center
07:33AM 49.1500 -123.0333 270° West 210 242 1,600 -1,140 Descending Vancouver Center
07:34AM 49.1667 -123.1167 287° West 160 184 700 -900 Descending Vancouver Center